createdAt,value
2023-07-03T00:00:55.037Z,889.00
2023-07-03T00:01:55.165Z,944.00
2023-07-03T00:02:55.250Z,869.00
2023-07-03T00:03:55.267Z,852.00
2023-07-03T00:04:55.468Z,772.00
2023-07-03T00:05:55.373Z,808.00
2023-07-03T00:06:55.410Z,878.00
2023-07-03T00:07:55.477Z,845.00
2023-07-03T00:08:55.512Z,809.00
2023-07-03T00:09:55.585Z,797.00
2023-07-03T00:10:55.640Z,882.00
2023-07-03T00:11:55.698Z,946.00
2023-07-03T00:12:55.751Z,1013.00
2023-07-03T00:13:55.858Z,965.00
2023-07-03T00:14:55.891Z,1002.00
2023-07-03T00:15:55.939Z,988.00
2023-07-03T00:16:56.061Z,1041.00
2023-07-03T00:17:56.146Z,1037.00
2023-07-03T00:18:56.133Z,1044.00
2023-07-03T00:19:56.166Z,1052.00
2023-07-03T00:20:56.204Z,1027.00
2023-07-03T00:21:56.213Z,963.00
2023-07-03T00:22:56.294Z,935.00
2023-07-03T00:23:56.401Z,920.00
2023-07-03T00:24:56.359Z,954.00
2023-07-03T00:25:56.365Z,996.00
2023-07-03T00:26:56.342Z,1019.00
2023-07-03T00:27:56.345Z,1037.00
2023-07-03T00:28:56.379Z,1046.00
2023-07-03T00:29:56.334Z,1087.00
2023-07-03T00:30:56.325Z,1142.00
2023-07-03T00:31:56.442Z,1086.00
2023-07-03T00:32:56.357Z,1041.00
2023-07-03T00:33:56.318Z,1081.00
2023-07-03T00:34:56.410Z,1088.00
2023-07-03T00:35:56.418Z,1080.00
2023-07-03T00:36:56.429Z,1078.00
2023-07-03T00:37:56.426Z,1077.00
2023-07-03T00:38:56.456Z,1040.00
2023-07-03T00:39:56.505Z,1050.00
2023-07-03T00:40:56.511Z,1043.00
2023-07-03T00:41:56.499Z,1067.00
2023-07-03T00:42:56.522Z,1068.00
2023-07-03T00:43:56.529Z,1038.00
2023-07-03T00:44:56.558Z,1024.00
2023-07-03T00:45:56.601Z,1022.00
2023-07-03T00:46:56.595Z,1026.00
2023-07-03T00:47:56.648Z,1031.00
2023-07-03T00:48:56.661Z,1051.00
2023-07-03T00:49:56.631Z,1065.00
2023-07-03T00:50:56.678Z,1065.00
2023-07-03T00:51:56.721Z,1105.00
2023-07-03T00:52:56.730Z,1106.00
2023-07-03T00:53:56.746Z,1115.00
2023-07-03T00:54:56.813Z,1190.00
2023-07-03T00:55:56.821Z,1222.00
2023-07-03T00:56:56.852Z,1188.00
2023-07-03T00:57:56.860Z,1120.00
2023-07-03T00:58:56.908Z,1123.00
2023-07-03T00:59:56.904Z,1135.00
2023-07-03T01:00:56.994Z,1185.00
2023-07-03T01:01:57.114Z,1201.00
2023-07-03T01:02:57.081Z,1248.00
2023-07-03T01:03:57.062Z,1239.00
2023-07-03T01:04:57.277Z,1224.00
2023-07-03T01:05:57.317Z,1202.00
2023-07-03T01:06:57.196Z,1199.00
2023-07-03T01:07:57.258Z,1216.00
2023-07-03T01:08:57.282Z,1240.00
2023-07-03T01:09:57.316Z,1213.00
2023-07-03T01:10:57.349Z,1191.00
2023-07-03T01:11:57.415Z,1108.00
2023-07-03T01:12:57.464Z,1170.00
2023-07-03T01:13:57.480Z,1134.00
2023-07-03T01:14:57.484Z,1153.00
2023-07-03T01:15:57.573Z,1120.00
2023-07-03T01:16:57.614Z,1097.00
2023-07-03T01:17:57.712Z,1079.00
2023-07-03T01:18:57.686Z,1014.00
2023-07-03T01:19:57.696Z,954.00
2023-07-03T01:20:57.745Z,992.00
2023-07-03T01:21:57.772Z,1065.00
2023-07-03T01:22:57.825Z,1098.00
2023-07-03T01:23:57.881Z,1165.00
2023-07-03T01:24:57.934Z,1040.00
2023-07-03T01:25:57.983Z,997.00
2023-07-03T01:26:58.092Z,1005.00
2023-07-03T01:27:58.101Z,1065.00
2023-07-03T01:28:58.173Z,1054.00
2023-07-03T01:29:58.217Z,1099.00
2023-07-03T01:30:58.280Z,1105.00
2023-07-03T01:31:58.419Z,1077.00
2023-07-03T01:32:58.535Z,1137.00
2023-07-03T01:33:58.451Z,1113.00
2023-07-03T01:34:58.519Z,1047.00
2023-07-03T01:35:58.577Z,1009.00
2023-07-03T01:36:58.621Z,983.00
2023-07-03T01:37:58.665Z,995.00
2023-07-03T01:38:58.759Z,947.00
2023-07-03T01:39:58.784Z,889.00
2023-07-03T01:40:58.854Z,914.00
2023-07-03T01:41:58.937Z,965.00
2023-07-03T01:42:58.999Z,963.00
2023-07-03T01:43:59.052Z,982.00
2023-07-03T01:44:59.093Z,994.00
2023-07-03T01:45:59.134Z,977.00
2023-07-03T01:46:59.244Z,972.00
2023-07-03T01:47:59.269Z,955.00
2023-07-03T01:48:59.314Z,945.00
2023-07-03T01:49:59.361Z,973.00
2023-07-03T01:50:59.389Z,1011.00
2023-07-03T01:51:59.450Z,1044.00
2023-07-03T01:52:59.501Z,1055.00
2023-07-03T01:53:59.564Z,1066.00
2023-07-03T01:54:59.615Z,1077.00
2023-07-03T01:55:59.708Z,1123.00
2023-07-03T01:56:59.761Z,1171.00
2023-07-03T01:57:59.878Z,1117.00
2023-07-03T01:58:59.849Z,1031.00
2023-07-03T01:59:59.927Z,966.00
2023-07-03T02:01:00.042Z,927.00
2023-07-03T02:02:00.060Z,837.00
2023-07-03T02:03:00.192Z,777.00
2023-07-03T02:04:00.123Z,806.00
2023-07-03T02:05:00.269Z,841.00
2023-07-03T02:06:00.256Z,915.00
2023-07-03T02:07:00.319Z,889.00
2023-07-03T02:08:00.330Z,903.00
2023-07-03T02:09:00.437Z,915.00
2023-07-03T02:10:00.493Z,902.00
2023-07-03T02:11:00.577Z,911.00
2023-07-03T02:12:00.627Z,938.00
2023-07-03T02:13:00.692Z,921.00
2023-07-03T02:14:00.724Z,960.00
2023-07-03T02:15:00.773Z,996.00
2023-07-03T02:16:00.858Z,1006.00
2023-07-03T02:17:01.054Z,1004.00
2023-07-03T02:18:00.996Z,1037.00
2023-07-03T02:19:01.029Z,1015.00
2023-07-03T02:20:01.100Z,1059.00
2023-07-03T02:21:01.150Z,1122.00
2023-07-03T02:22:01.240Z,1122.00
2023-07-03T02:23:01.329Z,1159.00
2023-07-03T02:24:01.305Z,1209.00
2023-07-03T02:25:01.404Z,1200.00
2023-07-03T02:26:01.488Z,1225.00
2023-07-03T02:27:01.536Z,1231.00
2023-07-03T02:28:01.553Z,1192.00
2023-07-03T02:29:01.613Z,1140.00
2023-07-03T02:30:01.693Z,1160.00
2023-07-03T02:31:01.802Z,1113.00
2023-07-03T02:32:01.802Z,1100.00
2023-07-03T02:33:01.874Z,1077.00
2023-07-03T02:34:01.882Z,1027.00
2023-07-03T02:35:01.994Z,1010.00
2023-07-03T02:36:01.986Z,1052.00
2023-07-03T02:37:02.011Z,1083.00
2023-07-03T02:38:02.065Z,1132.00
2023-07-03T02:39:02.160Z,1192.00
2023-07-03T02:40:02.181Z,1206.00
2023-07-03T02:41:02.295Z,1155.00
2023-07-03T02:42:02.305Z,1013.00
2023-07-03T02:43:02.363Z,1067.00
2023-07-03T02:44:02.394Z,1027.00
2023-07-03T02:45:02.472Z,1003.00
2023-07-03T02:46:02.527Z,1016.00
2023-07-03T02:47:02.648Z,1014.00
2023-07-03T02:48:02.712Z,1016.00
2023-07-03T02:49:02.718Z,1033.00
2023-07-03T02:50:02.880Z,1061.00
2023-07-03T02:51:02.900Z,1114.00
2023-07-03T02:52:02.877Z,1115.00
2023-07-03T02:53:02.943Z,1161.00
2023-07-03T02:54:03.021Z,1173.00
2023-07-03T02:55:03.081Z,1223.00
2023-07-03T02:56:03.161Z,1222.00
2023-07-03T02:57:03.244Z,1236.00
2023-07-03T02:58:03.277Z,1144.00
2023-07-03T02:59:03.368Z,1084.00
2023-07-03T03:00:03.391Z,1048.00
2023-07-03T03:01:03.453Z,1070.00
2023-07-03T03:02:03.509Z,1112.00
2023-07-03T03:03:03.708Z,1153.00
2023-07-03T03:04:03.638Z,1196.00
2023-07-03T03:05:03.743Z,1257.00
2023-07-03T03:06:03.754Z,1294.00
2023-07-03T03:07:03.792Z,1277.00
2023-07-03T03:08:03.877Z,1275.00
2023-07-03T03:09:03.936Z,1333.00
2023-07-03T03:10:03.977Z,1195.00
2023-07-03T03:11:04.097Z,1096.00
2023-07-03T03:12:04.095Z,1083.00
2023-07-03T03:13:04.143Z,1133.00
2023-07-03T03:14:04.219Z,1148.00
2023-07-03T03:15:04.273Z,1194.00
2023-07-03T03:16:04.321Z,1177.00
2023-07-03T03:17:04.383Z,1190.00
2023-07-03T03:18:04.523Z,1159.00
2023-07-03T03:19:04.482Z,1102.00
2023-07-03T03:20:04.520Z,1152.00
2023-07-03T03:21:04.530Z,1145.00
2023-07-03T03:22:04.517Z,1186.00
2023-07-03T03:23:04.557Z,1241.00
2023-07-03T03:24:04.559Z,1291.00
2023-07-03T03:25:04.584Z,1278.00
2023-07-03T03:26:04.597Z,1316.00
2023-07-03T03:27:04.625Z,1346.00
2023-07-03T03:28:04.688Z,1349.00
2023-07-03T03:29:04.702Z,1334.00
2023-07-03T03:30:04.739Z,1284.00
2023-07-03T03:31:04.807Z,1318.00
2023-07-03T03:32:04.759Z,1346.00
2023-07-03T03:33:04.768Z,1380.00
2023-07-03T03:34:04.859Z,1431.00
2023-07-03T03:35:05.007Z,1468.00
2023-07-03T03:36:04.918Z,1450.00
2023-07-03T03:37:04.959Z,1428.00
2023-07-03T03:38:05.001Z,1372.00
2023-07-03T03:39:04.990Z,1213.00
2023-07-03T03:40:04.991Z,1036.00
2023-07-03T03:41:05.024Z,942.00
2023-07-03T03:42:05.034Z,870.00
2023-07-03T03:43:05.030Z,881.00
2023-07-03T03:44:05.034Z,876.00
2023-07-03T03:45:05.055Z,863.00
2023-07-03T03:46:05.053Z,902.00
2023-07-03T03:47:05.050Z,955.00
2023-07-03T03:48:05.216Z,989.00
2023-07-03T03:49:05.048Z,1022.00
2023-07-03T03:50:05.078Z,1049.00
2023-07-03T03:51:05.073Z,1068.00
2023-07-03T03:52:05.100Z,948.00
2023-07-03T03:53:05.150Z,967.00
2023-07-03T03:54:05.153Z,1028.00
2023-07-03T03:55:05.160Z,970.00
2023-07-03T03:56:05.193Z,969.00
2023-07-03T03:57:05.281Z,1024.00
2023-07-03T03:58:05.256Z,1056.00
2023-07-03T03:59:05.271Z,970.00
2023-07-03T04:00:05.262Z,869.00
2023-07-03T04:01:05.277Z,884.00
2023-07-03T04:02:05.302Z,828.00
2023-07-03T04:03:05.297Z,744.00
2023-07-03T04:04:05.284Z,698.00
2023-07-03T04:05:05.301Z,728.00
2023-07-03T04:06:05.302Z,759.00
2023-07-03T04:07:05.304Z,788.00
2023-07-03T04:08:05.358Z,778.00
2023-07-03T04:09:05.313Z,850.00
2023-07-03T04:10:05.302Z,905.00
2023-07-03T04:11:05.334Z,959.00
2023-07-03T04:12:05.317Z,1017.00
2023-07-03T04:13:05.368Z,1093.00
2023-07-03T04:14:05.368Z,1180.00
2023-07-03T04:15:05.382Z,1245.00
2023-07-03T04:16:05.371Z,1255.00
2023-07-03T04:17:05.346Z,1268.00
2023-07-03T04:18:05.354Z,1285.00
2023-07-03T04:19:05.353Z,1305.00
2023-07-03T04:20:05.372Z,1294.00
2023-07-03T04:21:05.338Z,1294.00
2023-07-03T04:22:05.351Z,1359.00
2023-07-03T04:23:05.347Z,1386.00
2023-07-03T04:24:05.396Z,1346.00
2023-07-03T04:25:05.339Z,1348.00
2023-07-03T04:26:05.351Z,1360.00
2023-07-03T04:27:05.363Z,1292.00
2023-07-03T04:28:05.355Z,1239.00
2023-07-03T04:29:05.356Z,1255.00
2023-07-03T04:30:05.353Z,1220.00
2023-07-03T04:31:05.387Z,1172.00
2023-07-03T04:32:05.404Z,1183.00
2023-07-03T04:33:05.418Z,1093.00
2023-07-03T04:34:05.394Z,1058.00
2023-07-03T04:35:05.430Z,1094.00
2023-07-03T04:36:05.410Z,1129.00
2023-07-03T04:37:05.513Z,1160.00
2023-07-03T04:38:05.436Z,1201.00
2023-07-03T04:39:05.421Z,1215.00
2023-07-03T04:40:05.474Z,1217.00
2023-07-03T04:41:05.448Z,1215.00
2023-07-03T04:42:05.456Z,1249.00
2023-07-03T04:43:05.446Z,1266.00
2023-07-03T04:44:05.454Z,1178.00
2023-07-03T04:45:05.462Z,1157.00
2023-07-03T04:46:05.499Z,1179.00
2023-07-03T04:47:05.457Z,1193.00
2023-07-03T04:48:05.473Z,1145.00
2023-07-03T04:49:05.428Z,1161.00
2023-07-03T04:50:05.457Z,1126.00
2023-07-03T04:51:05.474Z,1135.00
2023-07-03T04:52:05.500Z,1100.00
2023-07-03T04:53:05.482Z,1091.00
2023-07-03T04:54:05.470Z,1098.00
2023-07-03T04:55:05.517Z,1110.00
2023-07-03T04:56:05.496Z,1168.00
2023-07-03T04:57:05.540Z,1219.00
2023-07-03T04:58:05.488Z,1220.00
2023-07-03T04:59:05.507Z,1266.00
2023-07-03T05:00:05.537Z,1180.00
2023-07-03T05:02:24.947Z,500.00
2023-07-03T05:03:24.957Z,500.00
2023-07-03T05:04:24.848Z,500.00
2023-07-03T05:05:24.777Z,500.00
2023-07-03T05:06:24.877Z,500.00
2023-07-03T05:07:24.768Z,500.00
2023-07-03T05:08:24.750Z,499.00
2023-07-03T05:09:24.774Z,501.00
2023-07-03T05:10:24.774Z,511.00
2023-07-03T05:11:24.767Z,519.00
2023-07-03T05:12:24.771Z,537.00
2023-07-03T05:13:24.742Z,572.00
2023-07-03T05:14:24.758Z,589.00
2023-07-03T05:15:24.733Z,607.00
2023-07-03T05:16:24.868Z,599.00
2023-07-03T05:17:24.742Z,603.00
2023-07-03T05:18:24.664Z,617.00
2023-07-03T05:19:24.700Z,622.00
2023-07-03T05:20:24.684Z,637.00
2023-07-03T05:21:24.789Z,641.00
2023-07-03T05:22:24.685Z,662.00
2023-07-03T05:23:24.633Z,699.00
2023-07-03T05:24:24.692Z,713.00
2023-07-03T05:25:24.717Z,692.00
2023-07-03T05:26:24.850Z,733.00
2023-07-03T05:27:24.738Z,697.00
2023-07-03T05:28:24.733Z,652.00
2023-07-03T05:29:24.765Z,648.00
2023-07-03T05:30:24.760Z,643.00
2023-07-03T05:31:25.019Z,655.00
2023-07-03T05:32:24.980Z,657.00
2023-07-03T05:33:24.963Z,663.00
2023-07-03T05:34:24.990Z,724.00
2023-07-03T05:35:24.979Z,764.00
2023-07-03T05:36:25.492Z,769.00
2023-07-03T05:37:25.101Z,793.00
2023-07-03T05:38:25.300Z,776.00
2023-07-03T05:39:25.245Z,815.00
2023-07-03T05:40:25.340Z,1381.00
2023-07-03T05:41:25.939Z,1374.00
2023-07-03T05:42:27.612Z,1171.00
2023-07-03T05:43:25.450Z,1035.00
2023-07-03T05:44:25.696Z,965.00
2023-07-03T05:46:52.871Z,500.00
2023-07-03T05:47:45.297Z,500.00
2023-07-03T05:48:45.290Z,500.00
2023-07-03T05:49:45.324Z,500.00
2023-07-03T05:50:45.552Z,500.00
2023-07-03T05:51:45.151Z,500.00
2023-07-03T05:52:45.151Z,504.00
2023-07-03T05:53:45.129Z,511.00
2023-07-03T05:54:45.154Z,500.00
2023-07-03T05:55:45.121Z,500.00
2023-07-03T05:56:45.434Z,507.00
2023-07-03T05:57:45.122Z,504.00
2023-07-03T05:58:45.245Z,507.00
2023-07-03T05:59:45.109Z,500.00
2023-07-03T06:00:45.161Z,503.00
2023-07-03T06:01:46.697Z,497.00
2023-07-03T06:02:45.071Z,500.00
2023-07-03T06:03:45.186Z,519.00
2023-07-03T06:04:45.212Z,546.00
2023-07-03T06:05:45.239Z,561.00
2023-07-03T06:06:45.447Z,553.00
2023-07-03T06:07:45.350Z,537.00
2023-07-03T06:08:45.364Z,526.00
2023-07-03T06:09:45.357Z,550.00
2023-07-03T06:10:45.461Z,551.00
2023-07-03T06:11:45.417Z,552.00
2023-07-03T06:12:45.452Z,542.00
2023-07-03T06:13:46.416Z,561.00
2023-07-03T06:14:45.448Z,557.00
2023-07-03T06:15:45.540Z,535.00
2023-07-03T06:16:45.971Z,502.00
2023-07-03T06:17:45.702Z,500.00
2023-07-03T06:18:46.486Z,505.00
2023-07-03T06:19:45.643Z,527.00
2023-07-03T06:20:45.600Z,561.00
2023-07-03T06:21:45.923Z,606.00
2023-07-03T06:22:45.666Z,634.00
2023-07-03T06:23:45.743Z,565.00
2023-07-03T06:24:45.715Z,501.00
2023-07-03T06:25:45.729Z,491.00
2023-07-03T06:26:45.948Z,501.00
2023-07-03T06:27:45.799Z,504.00
2023-07-03T06:28:45.803Z,503.00
2023-07-03T06:29:45.861Z,500.00
2023-07-03T06:30:46.750Z,515.00
2023-07-03T06:31:45.952Z,536.00
2023-07-03T06:32:45.964Z,538.00
2023-07-03T06:33:45.922Z,487.00
2023-07-03T06:34:45.876Z,469.00
2023-07-03T06:35:46.077Z,492.00
2023-07-03T06:36:46.451Z,488.00
2023-07-03T06:37:46.085Z,505.00
2023-07-03T06:38:46.011Z,488.00
2023-07-03T06:39:46.085Z,462.00
2023-07-03T06:40:46.173Z,513.00
2023-07-03T06:41:46.462Z,534.00
2023-07-03T06:42:46.062Z,569.00
2023-07-03T06:43:46.084Z,551.00
2023-07-03T06:44:46.135Z,592.00
2023-07-03T06:45:46.117Z,637.00
2023-07-03T06:46:46.163Z,584.00
2023-07-03T06:47:46.147Z,564.00
2023-07-03T06:48:46.174Z,524.00
2023-07-03T06:49:46.142Z,515.00
2023-07-03T06:50:46.101Z,504.00
2023-07-03T06:51:46.413Z,511.00
2023-07-03T06:52:46.258Z,500.00
2023-07-03T06:53:47.316Z,490.00
2023-07-03T06:54:46.343Z,400.00
2023-07-03T06:55:46.398Z,400.00
2023-07-03T06:56:47.081Z,400.00
2023-07-03T06:57:46.510Z,506.00
2023-07-03T06:58:46.566Z,495.00
2023-07-03T06:59:46.629Z,503.00
2023-07-03T07:00:46.669Z,405.00
2023-07-03T07:01:46.994Z,400.00
2023-07-03T07:02:46.786Z,400.00
2023-07-03T07:03:47.500Z,475.00
2023-07-03T07:04:47.050Z,515.00
2023-07-03T07:05:47.088Z,505.00
2023-07-03T07:06:48.052Z,509.00
2023-07-03T07:07:47.303Z,510.00
2023-07-03T07:08:47.071Z,526.00
2023-07-03T07:09:47.233Z,521.00
2023-07-03T07:10:47.223Z,482.00
2023-07-03T07:11:49.139Z,524.00
2023-07-03T07:12:49.068Z,591.00
2023-07-03T07:13:47.206Z,593.00
2023-07-03T07:14:48.267Z,535.00
2023-07-03T07:15:47.122Z,550.00
2023-07-03T07:16:47.513Z,501.00
2023-07-03T07:17:52.317Z,539.00
2023-07-03T07:18:48.214Z,592.00
2023-07-03T07:19:47.123Z,593.00
2023-07-03T07:20:47.138Z,594.00
2023-07-03T07:21:49.024Z,539.00
2023-07-03T07:22:47.149Z,463.00
2023-07-03T07:23:47.184Z,422.00
2023-07-03T07:24:48.223Z,508.00
2023-07-03T07:25:47.194Z,527.00
2023-07-03T07:26:47.483Z,554.00
2023-07-03T07:27:47.092Z,577.00
2023-07-03T07:28:47.085Z,634.00
2023-07-03T07:29:47.071Z,634.00
2023-07-03T07:30:47.072Z,585.00
2023-07-03T07:31:47.472Z,562.00
2023-07-03T07:32:47.081Z,400.00
2023-07-03T07:33:47.022Z,400.00
2023-07-03T07:34:47.027Z,441.00
2023-07-03T07:35:47.099Z,487.00
2023-07-03T07:36:47.447Z,487.00
2023-07-03T07:37:47.255Z,509.00
2023-07-03T07:38:47.322Z,543.00
2023-07-03T07:39:47.359Z,601.00
2023-07-03T07:40:47.361Z,577.00
2023-07-03T07:41:47.642Z,592.00
2023-07-03T07:42:47.445Z,629.00
2023-07-03T07:43:47.598Z,621.00
2023-07-03T07:44:47.591Z,558.00
2023-07-03T07:45:48.306Z,504.00
2023-07-03T07:46:48.269Z,480.00
2023-07-03T07:47:47.751Z,548.00
2023-07-03T07:48:47.702Z,633.00
2023-07-03T07:49:48.482Z,872.00
2023-07-03T07:50:47.750Z,1049.00
2023-07-03T07:51:47.874Z,1286.00
2023-07-03T07:52:48.109Z,1488.00
2023-07-03T07:53:47.821Z,1380.00
2023-07-03T07:54:47.770Z,1140.00
2023-07-03T07:55:47.851Z,1130.00
2023-07-03T07:56:47.771Z,1139.00
2023-07-03T07:57:47.869Z,1163.00
2023-07-03T07:58:47.812Z,1336.00
2023-07-03T07:59:48.165Z,1158.00
2023-07-03T08:00:47.755Z,1116.00
2023-07-03T08:01:47.887Z,1148.00
2023-07-03T08:02:47.939Z,1244.00
2023-07-03T08:03:47.975Z,1240.00
2023-07-03T08:04:47.907Z,764.00
2023-07-03T08:05:48.041Z,656.00
2023-07-03T08:06:47.960Z,730.00
2023-07-03T08:07:48.464Z,763.00
2023-07-03T08:08:47.961Z,629.00
2023-07-03T08:09:48.030Z,618.00
2023-07-03T08:10:48.040Z,535.00
2023-07-03T08:11:48.036Z,524.00
2023-07-03T08:12:48.434Z,500.00
2023-07-03T08:13:48.662Z,563.00
2023-07-03T08:14:48.156Z,556.00
2023-07-03T08:15:48.227Z,518.00
2023-07-03T08:16:48.388Z,439.00
2023-07-03T08:17:48.570Z,531.00
2023-07-03T08:18:50.078Z,614.00
2023-07-03T08:19:48.274Z,620.00
2023-07-03T08:20:48.291Z,600.00
2023-07-03T08:21:48.276Z,629.00
2023-07-03T08:22:48.467Z,588.00
2023-07-03T08:23:48.340Z,512.00
2023-07-03T08:24:48.370Z,468.00
2023-07-03T08:25:48.637Z,526.00
2023-07-03T08:26:48.457Z,549.00
2023-07-03T08:27:48.483Z,577.00
2023-07-03T08:28:48.498Z,654.00
2023-07-03T08:29:48.521Z,806.00
2023-07-03T08:30:48.642Z,925.00
2023-07-03T08:31:48.672Z,941.00
2023-07-03T08:32:49.016Z,1091.00
2023-07-03T08:33:48.726Z,1406.00
2023-07-03T08:37:49.084Z,1479.00
2023-07-03T08:38:48.784Z,1425.00
2023-07-03T08:39:48.804Z,1279.00
2023-07-03T08:40:48.909Z,1242.00
2023-07-03T08:41:48.721Z,1214.00
2023-07-03T08:42:48.959Z,1161.00
2023-07-03T08:43:48.706Z,927.00
2023-07-03T08:44:48.719Z,916.00
2023-07-03T08:45:48.743Z,950.00
2023-07-03T08:47:01.941Z,927.00
2023-07-03T08:47:49.693Z,837.00
2023-07-03T08:48:48.667Z,798.00
2023-07-03T08:49:48.640Z,783.00
2023-07-03T08:50:48.614Z,922.00
2023-07-03T08:51:48.622Z,793.00
2023-07-03T08:52:49.050Z,632.00
2023-07-03T08:53:48.629Z,627.00
2023-07-03T08:54:48.685Z,627.00
2023-07-03T08:55:48.661Z,635.00
2023-07-03T08:56:48.609Z,647.00
2023-07-03T08:57:49.955Z,850.00
2023-07-03T08:58:48.642Z,828.00
2023-07-03T08:59:48.673Z,913.00
2023-07-03T09:00:48.936Z,986.00
2023-07-03T09:01:48.858Z,1218.00
2023-07-03T09:02:48.872Z,803.00
2023-07-03T09:03:48.898Z,759.00
2023-07-03T09:04:49.244Z,751.00
2023-07-03T09:05:49.199Z,785.00
2023-07-03T09:06:48.929Z,829.00
2023-07-03T09:07:49.001Z,982.00
2023-07-03T09:08:49.036Z,1167.00
2023-07-03T09:09:49.063Z,1050.00
2023-07-03T09:10:49.120Z,1204.00
2023-07-03T09:11:49.540Z,945.00
2023-07-03T09:12:49.172Z,856.00
2023-07-03T09:13:49.207Z,936.00
2023-07-03T09:14:49.240Z,1277.00
2023-07-03T09:15:49.532Z,841.00
2023-07-03T09:16:49.438Z,639.00
2023-07-03T09:17:49.593Z,625.00
2023-07-03T09:18:49.270Z,552.00
2023-07-03T09:19:49.313Z,636.00
2023-07-03T09:20:49.604Z,654.00
2023-07-03T09:21:49.401Z,542.00
2023-07-03T09:22:49.512Z,477.00
2023-07-03T09:23:49.484Z,401.00
2023-07-03T09:24:50.402Z,470.00
2023-07-03T09:25:50.004Z,400.00
2023-07-03T09:26:49.727Z,400.00
2023-07-03T09:27:50.042Z,533.00
2023-07-03T09:28:49.618Z,542.00
2023-07-03T09:29:50.024Z,552.00
2023-07-03T09:30:50.187Z,596.00
2023-07-03T09:32:50.232Z,550.00
2023-07-03T09:33:49.873Z,477.00
2023-07-03T09:34:49.845Z,540.00
2023-07-03T09:35:50.072Z,544.00
2023-07-03T09:36:49.901Z,491.00
2023-07-03T09:37:50.021Z,500.00
2023-07-03T09:38:50.021Z,634.00
2023-07-03T09:39:50.071Z,566.00
2023-07-03T09:40:50.146Z,481.00
2023-07-03T09:41:50.125Z,524.00
2023-07-03T09:42:50.526Z,482.00
2023-07-03T09:43:50.156Z,649.00
2023-07-03T09:44:50.221Z,661.00
2023-07-03T09:45:50.356Z,689.00
2023-07-03T09:46:50.318Z,628.00
2023-07-03T09:47:50.655Z,623.00
2023-07-03T09:48:50.392Z,590.00
2023-07-03T09:49:50.551Z,566.00
2023-07-03T09:51:05.698Z,589.00
2023-07-03T09:51:51.492Z,521.00
2023-07-03T09:53:03.549Z,589.00
2023-07-03T09:53:51.395Z,592.00
2023-07-03T09:54:50.390Z,601.00
2023-07-03T09:55:50.521Z,620.00
2023-07-03T09:56:50.389Z,592.00
2023-07-03T09:57:50.487Z,599.00
2023-07-03T09:58:50.345Z,653.00
2023-07-03T09:59:50.364Z,588.00
2023-07-03T10:00:50.557Z,518.00
2023-07-03T10:03:50.539Z,528.00
2023-07-03T10:06:50.340Z,528.00
2023-07-03T10:07:51.192Z,542.00
2023-07-03T10:08:50.447Z,546.00
2023-07-03T10:11:50.385Z,533.00
2023-07-03T10:12:50.517Z,535.00
2023-07-03T10:13:50.250Z,569.00
2023-07-03T10:14:50.263Z,600.00
2023-07-03T10:15:50.367Z,548.00
2023-07-03T10:16:50.357Z,573.00
2023-07-03T10:17:50.374Z,609.00
2023-07-03T10:18:50.252Z,605.00
2023-07-03T10:19:50.203Z,571.00
2023-07-03T10:20:50.288Z,533.00
2023-07-03T10:21:50.343Z,581.00
2023-07-03T10:22:50.224Z,695.00
2023-07-03T10:23:50.221Z,746.00
2023-07-03T10:24:50.228Z,708.00
2023-07-03T10:25:50.519Z,597.00
2023-07-03T10:26:50.185Z,623.00
2023-07-03T10:27:50.145Z,635.00
2023-07-03T10:28:50.500Z,756.00
2023-07-03T10:29:51.141Z,759.00
2023-07-03T10:30:50.161Z,755.00
2023-07-03T10:31:50.220Z,655.00
2023-07-03T10:32:50.150Z,607.00
2023-07-03T10:33:50.486Z,758.00
2023-07-03T10:34:50.137Z,812.00
2023-07-03T10:35:50.612Z,922.00
2023-07-03T10:36:50.122Z,696.00
2023-07-03T10:37:50.167Z,832.00
2023-07-03T10:38:50.536Z,877.00
2023-07-03T10:39:50.127Z,714.00
2023-07-03T10:40:50.396Z,595.00
2023-07-03T10:41:50.128Z,628.00
2023-07-03T10:42:50.084Z,564.00
2023-07-03T10:43:50.062Z,638.00
2023-07-03T10:44:50.058Z,644.00
2023-07-03T10:45:50.508Z,641.00
2023-07-03T10:46:50.095Z,625.00
2023-07-03T10:47:50.051Z,517.00
2023-07-03T10:48:50.025Z,510.00
2023-07-03T10:49:49.981Z,515.00
2023-07-03T10:50:50.239Z,557.00
2023-07-03T10:51:50.021Z,515.00
2023-07-03T10:52:50.059Z,594.00
2023-07-03T10:53:50.057Z,527.00
2023-07-03T10:54:50.065Z,530.00
2023-07-03T10:55:50.273Z,500.00
2023-07-03T10:56:49.991Z,513.00
2023-07-03T10:57:49.942Z,576.00
2023-07-03T10:58:50.540Z,537.00
2023-07-03T10:59:49.959Z,599.00
2023-07-03T11:00:49.955Z,632.00
2023-07-03T11:01:50.129Z,698.00
2023-07-03T11:02:50.006Z,647.00
2023-07-03T11:04:01.066Z,658.00
2023-07-03T11:04:51.068Z,659.00
2023-07-03T11:05:50.305Z,644.00
2023-07-03T11:06:50.003Z,620.00
2023-07-03T11:07:50.007Z,584.00
2023-07-03T11:08:49.964Z,772.00
2023-07-03T11:09:50.027Z,661.00
2023-07-03T11:10:49.982Z,685.00
2023-07-03T11:11:49.971Z,671.00
2023-07-03T11:12:49.953Z,610.00
2023-07-03T11:13:50.008Z,661.00
2023-07-03T11:14:49.944Z,734.00
2023-07-03T11:15:50.184Z,680.00
2023-07-03T11:16:50.040Z,595.00
2023-07-03T11:19:49.993Z,571.00
2023-07-03T11:22:49.910Z,629.00
2023-07-03T11:23:50.006Z,585.00
2023-07-03T11:24:49.925Z,598.00
2023-07-03T11:28:49.907Z,632.00
2023-07-03T11:29:49.894Z,649.00
2023-07-03T11:30:50.263Z,662.00
2023-07-03T11:31:50.908Z,751.00
2023-07-03T11:32:49.853Z,890.00
2023-07-03T11:36:51.865Z,802.00
2023-07-03T11:39:49.860Z,1017.00
2023-07-03T11:40:50.055Z,960.00
2023-07-03T11:43:49.783Z,671.00
2023-07-03T11:44:49.847Z,663.00
2023-07-03T11:45:50.091Z,652.00
2023-07-03T11:46:49.797Z,605.00
2023-07-03T11:47:49.767Z,562.00
2023-07-03T11:48:49.814Z,656.00
2023-07-03T11:49:49.748Z,696.00
2023-07-03T11:50:49.746Z,615.00
2023-07-03T11:51:49.733Z,573.00
2023-07-03T11:52:49.708Z,671.00
2023-07-03T11:53:49.769Z,890.00
2023-07-03T11:54:49.717Z,896.00
2023-07-03T11:55:50.017Z,1103.00
2023-07-03T11:56:49.680Z,1061.00
2023-07-03T11:57:53.040Z,839.00
2023-07-03T11:58:50.728Z,843.00
2023-07-03T11:59:49.650Z,788.00
2023-07-03T12:00:49.696Z,614.00
2023-07-03T12:01:49.668Z,551.00
2023-07-03T12:02:49.720Z,557.00
2023-07-03T12:03:49.708Z,578.00
2023-07-03T12:04:50.345Z,596.00
2023-07-03T12:05:49.914Z,680.00
2023-07-03T12:06:49.616Z,798.00
2023-07-03T12:07:49.636Z,652.00
2023-07-03T12:08:49.633Z,641.00
2023-07-03T12:09:49.618Z,624.00
2023-07-03T12:10:49.588Z,595.00
2023-07-03T12:11:49.662Z,651.00
2023-07-03T12:12:49.641Z,798.00
2023-07-03T12:13:49.854Z,852.00
2023-07-03T12:14:49.768Z,762.00
2023-07-03T12:15:49.952Z,830.00
2023-07-03T12:16:49.854Z,674.00
2023-07-03T12:17:49.884Z,776.00
2023-07-03T12:18:49.925Z,663.00
2023-07-03T12:19:49.901Z,623.00
2023-07-03T12:20:49.909Z,629.00
2023-07-03T12:21:49.906Z,794.00
2023-07-03T12:22:49.920Z,757.00
2023-07-03T12:23:49.915Z,619.00
2023-07-03T12:24:49.933Z,634.00
2023-07-03T12:25:50.287Z,775.00
2023-07-03T12:26:50.058Z,959.00
2023-07-03T12:27:50.109Z,947.00
2023-07-03T12:28:50.099Z,939.00
2023-07-03T12:29:50.164Z,638.00
2023-07-03T12:30:50.191Z,642.00
2023-07-03T12:31:50.177Z,699.00
2023-07-03T12:32:50.233Z,702.00
2023-07-03T12:33:50.294Z,728.00
2023-07-03T12:34:50.331Z,666.00
2023-07-03T12:35:50.541Z,515.00
2023-07-03T12:36:54.222Z,529.00
2023-07-03T12:37:51.453Z,530.00
2023-07-03T12:38:50.430Z,534.00
2023-07-03T12:39:50.369Z,565.00
2023-07-03T12:40:50.450Z,641.00
2023-07-03T12:41:50.351Z,685.00
2023-07-03T12:42:50.409Z,672.00
2023-07-03T12:44:03.465Z,646.00
2023-07-03T12:44:51.386Z,646.00
2023-07-03T12:45:50.608Z,627.00
2023-07-03T12:46:50.340Z,653.00
2023-07-03T12:47:50.377Z,654.00